Guangzhou Baiyun International Airport
ZGGG : now visible

Airfield :











YOU CAN JOIN US ON...

 
LOGIN :

Register | Disclaimer

   EN    FR    IT 

 









Legend :    VFR   Marginal VFR   IFR   Intensive IFR   Very Intensive IFR
Visi :
Ceiling :
>= 8 km
>= 3000ft
5 to 8 km
1000 to 3000 ft
1500m to 5 km
500 to 1000 ft
800 to 1500m
200 to 500 ft
< 800m
< 200 ft
Symbols :   Thunderstorms  Fog  Heavy snow  Heavy precipitations  Wind > 20 kt







- Airport Elevation : 50 ft
- IATA code : CAN


ZGGG - Guangzhou Baiyun International

CURRENT METAR :
  • 160930Z 34004MPS 6000 NSC 22/15 Q1014 NOSIG

EXPIRED METARs :
  • 160900Z 34004MPS 310V010 6000 NSC 23/15 Q1014 NOSIG
  • 160830Z 34005MPS 6000 SCT033 24/16 Q1014 NOSIG
  • 160800Z 35004MPS 8000 SCT033 25/16 Q1014 NOSIG
  • 160730Z 36004MPS 310V040 8000 BKN033 25/16 Q1014 NOSIG
  • 160700Z 33005MPS 290V010 8000 BKN033 25/16 Q1015 NOSIG

TAF AMD TAF ZGGG
Valid from the 16 at 06:00 until the 17 at 06:00 UTC


160655Z 1606/1706 36004MPS 5000 BR BKN026 TX26/1607Z TN17/1622Z
ZGZU FIR / Asia



MET'MAP, your aeronautical weather chart ! - Copyright ORBIFLY December 2007 - Disclaimer

ORBIFLY MET'MAP TEAM :

Programming & Development : Alexandra Zaïnal
Concept & Development : Baudouin d'Aumeries
Co-Development & Prog : Marc-Olivier Méhu
Technical & hardware support : Manuel Goepfert

Contact : metmap@orbifly.com




SOURCES & CREDITS :

   NOAA       Earth
Advisory